This is the latest recevied weather packets stored in our database for station/object W6ORV. If no packets are shown the sender has not sent any weather packets the latest 10 day(s).
| Time | Temp. | Humidity | Pressure | Rain* | Wind** | Luminosity | Snow |
|---|---|---|---|---|---|---|---|
| 1777671347 | 30° C | 33% | 4296.9 hPa | 0 mm | - | 724 W/m² | - |
| 1777671043 | 30.56° C | 32% | 4296.8 hPa | 0 mm | - | 738 W/m² | - |
| 1777670740 | 30.56° C | 31% | 4297.2 hPa | 0 mm | - | 742 W/m² | - |
| 1777670437 | 30.56° C | 32% | 4297 hPa | 0 mm | - | 751 W/m² | - |
| 1777670134 | 31.11° C | 32% | 4297.1 hPa | 0 mm | - | 753 W/m² | - |
| 1777669832 | 30.56° C | 32% | 4297.1 hPa | 0 mm | - | 760 W/m² | - |
| 1777669227 | 28.89° C | 34% | 4297.1 hPa | 0 mm | - | 746 W/m² | - |
| 1777668921 | 29.44° C | 35% | 4297.4 hPa | 0 mm | - | 729 W/m² | - |
| 1777667708 | 30° C | 34% | 4297.4 hPa | 0 mm | - | 737 W/m² | - |
| 1777667102 | 28.89° C | 37% | 4297.6 hPa | 0 mm | - | 717 W/m² | - |
| 1777660730 | 26.11° C | 46% | 4298.9 hPa | 0 mm | - | 836 W/m² | - |
| 1777660124 | 24.44° C | 50% | 4299.1 hPa | 0 mm | - | 812 W/m² | - |
| 1777659821 | 23.33° C | 51% | 4299.2 hPa | 0 mm | - | 829 W/m² | - |
| 1777659517 | 22.78° C | 53% | 4299.2 hPa | 0 mm | - | 822 W/m² | - |
| 1777659215 | 23.33° C | 54% | 4299.5 hPa | 0 mm | - | 824 W/m² | - |
| 1777658912 | 23.33° C | 53% | 4299.4 hPa | 0 mm | - | 818 W/m² | - |
| 1777658608 | 22.22° C | 56% | 4299.4 hPa | 0 mm | - | 829 W/m² | - |
| 1777658002 | 21.67° C | 54% | 4299.7 hPa | 0 mm | - | 826 W/m² | - |
| 1777657094 | 20.56° C | 60% | 4299.7 hPa | 0 mm | - | 819 W/m² | - |
| 1777656791 | 20.56° C | 60% | 4299.6 hPa | 0 mm | - | 801 W/m² | - |
| 1777656182 | 20° C | 62% | 4299.8 hPa | 0 mm | - | 810 W/m² | - |
| 1777655877 | 20° C | 62% | 4299.7 hPa | 0 mm | - | 792 W/m² | - |
| 1777655575 | 19.44° C | 64% | 4299.8 hPa | 0 mm | - | 780 W/m² | - |
| 1777654969 | 18.89° C | 66% | 4300.1 hPa | 0 mm | - | 751 W/m² | - |
| 1777654666 | 18.89° C | 66% | 4300.1 hPa | 0 mm | - | 714 W/m² | - |
* Rain latest hour (hover to see other rain measurements)
** Current wind speed in m/s (hover to see current wind gust speed)